Time;durP1;ratioP1;P1;durP2;ratioP2;P2;SDS_P1;SDS_P2;PMS_P1;PMS_P2;Temp;Humidity;BMP_temperature;BMP_pressure;BME280_temperature;BME280_humidity;BME280_pressure;Samples;Min_cycle;Max_cycle;Signal;HPM_P1;HPM_P2
2023/03/28 00:00:47;;;;;;;3.53;1.00;;;2.10;99.90;;;;;;5016522;28;20171;-86
2023/03/28 00:03:17;;;;;;;5.73;1.23;;;2.00;99.90;;;;;;4999129;28;20245;-84
2023/03/28 00:05:44;;;;;;;2.60;1.13;;;2.00;99.90;;;;;;4999124;28;20196;-84
2023/03/28 00:08:10;;;;;;;8.30;1.20;;;1.90;99.90;;;;;;5015708;28;20700;-84
2023/03/28 00:10:38;;;;;;;6.13;1.20;;;1.90;99.90;;;;;;5004985;28;20931;-83
2023/03/28 00:13:04;;;;;;;5.33;1.20;;;1.90;99.90;;;;;;5001655;28;20191;-85
2023/03/28 00:15:30;;;;;;;5.77;1.13;;;1.90;99.90;;;;;;5015727;28;20237;-85
2023/03/28 00:17:55;;;;;;;3.70;1.03;;;1.90;99.90;;;;;;5016304;28;20183;-90
2023/03/28 00:20:21;;;;;;;7.73;1.60;;;1.90;99.90;;;;;;5016607;28;20808;-85
2023/03/28 00:22:46;;;;;;;5.50;1.50;;;1.90;99.90;;;;;;5014520;28;20195;-86
2023/03/28 00:25:13;;;;;;;3.17;1.17;;;1.90;99.90;;;;;;5015518;28;20646;-86
2023/03/28 00:27:39;;;;;;;7.63;1.67;;;2.00;99.90;;;;;;5016579;28;20186;-86
2023/03/28 00:30:11;;;;;;;4.77;1.20;;;1.90;99.90;;;;;;5015299;28;20318;-85
2023/03/28 00:32:36;;;;;;;7.57;1.40;;;2.00;99.90;;;;;;4997859;28;20194;-83
2023/03/28 00:35:02;;;;;;;7.10;1.60;;;2.00;99.90;;;;;;5016302;28;20318;-83
2023/03/28 00:37:28;;;;;;;4.97;1.63;;;1.90;99.90;;;;;;5016679;28;20649;-84
2023/03/28 00:39:54;;;;;;;6.30;1.60;;;2.00;99.90;;;;;;4998535;28;20540;-85
2023/03/28 00:42:22;;;;;;;4.37;1.23;;;1.90;99.90;;;;;;5015873;28;20205;-86
2023/03/28 00:44:55;;;;;;;5.97;1.50;;;2.00;99.90;;;;;;5016697;28;20215;-87
2023/03/28 00:47:26;;;;;;;6.30;1.47;;;1.90;99.90;;;;;;5016417;28;20177;-85
2023/03/28 00:50:29;;;;;;;13.97;1.33;;;2.00;99.90;;;;;;5016068;28;20209;-85
2023/03/28 00:53:04;;;;;;;9.30;1.50;;;2.00;99.90;;;;;;5015529;28;20238;-87
2023/03/28 00:55:50;;;;;;;6.70;1.60;;;2.00;99.90;;;;;;5016419;28;20201;-85
2023/03/28 00:58:22;;;;;;;4.93;2.13;;;2.00;99.90;;;;;;5013461;28;20191;-84
2023/03/28 01:00:49;;;;;;;7.60;1.63;;;2.00;99.90;;;;;;5012416;28;20264;-85
2023/03/28 01:03:17;;;;;;;9.83;1.70;;;2.00;99.90;;;;;;5010497;28;20195;-84
2023/03/28 01:05:46;;;;;;;6.77;1.70;;;1.90;99.90;;;;;;5016192;28;20183;-83
2023/03/28 01:08:23;;;;;;;9.20;1.60;;;2.00;99.90;;;;;;5015284;28;20683;-84
2023/03/28 01:10:49;;;;;;;10.63;1.53;;;2.00;99.90;;;;;;4996701;28;20191;-82
2023/03/28 01:13:18;;;;;;;9.97;1.50;;;2.00;99.90;;;;;;5013476;28;20566;-84
2023/03/28 01:15:44;;;;;;;10.87;1.73;;;1.90;99.90;;;;;;5015886;28;20625;-86
2023/03/28 01:18:11;;;;;;;6.20;1.80;;;1.90;99.90;;;;;;5013737;28;20190;-84
2023/03/28 01:21:05;;;;;;;7.70;1.60;;;1.90;99.90;;;;;;5015783;28;20621;-85
2023/03/28 01:24:07;;;;;;;5.90;1.60;;;1.90;99.90;;;;;;5014254;28;20218;-85
2023/03/28 01:26:57;;;;;;;5.60;1.40;;;1.90;99.90;;;;;;5014518;28;20961;-83
2023/03/28 01:29:22;;;;;;;5.83;1.43;;;1.80;99.90;;;;;;5010156;28;20186;-84
2023/03/28 01:32:16;;;;;;;5.33;1.80;;;1.80;99.90;;;;;;4996815;28;20190;-82
2023/03/28 01:35:14;;;;;;;7.53;1.63;;;1.80;99.90;;;;;;5014029;28;20191;-85
2023/03/28 01:37:58;;;;;;;6.70;1.47;;;1.80;99.90;;;;;;5010837;28;20172;-84
2023/03/28 01:40:36;;;;;;;9.27;2.00;;;1.70;99.90;;;;;;5008457;28;20186;-84
2023/03/28 01:43:08;;;;;;;7.23;2.10;;;1.80;99.90;;;;;;4998586;28;20185;-86
2023/03/28 01:45:58;;;;;;;8.17;2.07;;;1.80;99.90;;;;;;4999351;28;20219;-83
2023/03/28 01:48:36;;;;;;;9.10;2.50;;;1.80;99.90;;;;;;4996584;28;20190;-86
2023/03/28 01:51:21;;;;;;;6.50;2.07;;;1.80;99.90;;;;;;4987468;28;20174;-86
2023/03/28 01:54:02;;;;;;;8.77;2.97;;;1.70;99.90;;;;;;5012668;28;20175;-84
2023/03/28 01:56:33;;;;;;;5.80;2.30;;;1.80;99.90;;;;;;5014278;28;20192;-85
2023/03/28 01:59:26;;;;;;;14.80;2.67;;;1.80;99.90;;;;;;5013512;28;20231;-84
2023/03/28 02:02:21;;;;;;;9.23;3.07;;;1.90;99.90;;;;;;4996593;28;20187;-84
2023/03/28 02:04:49;;;;;;;6.47;2.13;;;1.80;99.90;;;;;;4999496;28;20222;-85
2023/03/28 02:07:18;;;;;;;13.63;2.30;;;1.90;99.90;;;;;;4995930;28;20227;-85
2023/03/28 02:09:46;;;;;;;12.07;2.17;;;1.90;99.90;;;;;;5014204;28;20195;-84
2023/03/28 02:12:18;;;;;;;11.20;2.20;;;1.90;99.90;;;;;;4997203;28;20201;-86
2023/03/28 02:14:47;;;;;;;5.33;2.13;;;1.80;99.90;;;;;;5014719;28;20175;-86
2023/03/28 02:17:14;;;;;;;11.00;1.97;;;1.80;99.90;;;;;;4997809;28;20185;-85
2023/03/28 02:19:52;;;;;;;16.83;2.53;;;1.80;99.90;;;;;;4997323;28;20265;-84
2023/03/28 02:22:27;;;;;;;7.50;1.93;;;1.90;99.90;;;;;;4996207;28;20656;-84
2023/03/28 02:24:52;;;;;;;9.53;2.07;;;1.90;99.90;;;;;;5014674;28;20204;-86
2023/03/28 02:27:21;;;;;;;12.67;2.30;;;1.90;99.90;;;;;;5015080;28;20539;-85
2023/03/28 02:29:48;;;;;;;7.23;1.73;;;1.90;99.90;;;;;;5013229;28;20529;-84
2023/03/28 02:32:16;;;;;;;5.20;1.80;;;1.90;99.90;;;;;;4995307;28;20221;-85
2023/03/28 02:34:44;;;;;;;8.03;1.93;;;1.90;99.90;;;;;;4995683;28;20185;-84
2023/03/28 02:37:24;;;;;;;5.33;2.23;;;1.90;99.90;;;;;;4999757;28;20194;-85
2023/03/28 02:40:23;;;;;;;10.77;2.13;;;1.80;99.90;;;;;;5012139;28;20233;-85
2023/03/28 02:43:06;;;;;;;6.67;1.67;;;1.90;99.90;;;;;;5005559;28;20189;-85
2023/03/28 02:45:51;;;;;;;3.43;1.30;;;1.90;99.90;;;;;;4995064;28;20212;-85
2023/03/28 02:48:39;;;;;;;13.53;1.87;;;1.80;99.90;;;;;;5011469;28;20193;-85
2023/03/28 02:51:49;;;;;;;7.17;1.27;;;1.80;99.90;;;;;;5014179;28;20515;-86
2023/03/28 02:54:24;;;;;;;9.63;2.03;;;1.80;99.90;;;;;;4999576;28;20198;-84
2023/03/28 02:57:05;;;;;;;6.00;1.80;;;1.80;99.90;;;;;;4995385;28;20211;-83
2023/03/28 02:59:42;;;;;;;5.70;2.10;;;1.90;99.90;;;;;;5012042;28;20186;-85
2023/03/28 03:02:09;;;;;;;4.77;1.67;;;1.90;99.90;;;;;;5013022;28;20206;-88
2023/03/28 03:04:34;;;;;;;10.20;1.90;;;1.90;99.90;;;;;;4994981;28;20226;-84
2023/03/28 03:07:01;;;;;;;5.30;1.87;;;2.00;99.90;;;;;;5012476;28;20266;-84
2023/03/28 03:09:27;;;;;;;7.90;2.57;;;2.00;99.90;;;;;;4994840;28;20218;-84
2023/03/28 03:11:53;;;;;;;8.90;2.80;;;1.90;99.90;;;;;;4995927;28;20181;-83
2023/03/28 03:14:19;;;;;;;7.70;2.00;;;2.00;99.90;;;;;;4995531;28;20191;-85
2023/03/28 03:16:47;;;;;;;4.23;1.77;;;2.00;99.90;;;;;;5011660;28;20681;-84
2023/03/28 03:19:13;;;;;;;8.63;1.43;;;2.00;99.90;;;;;;5011242;28;20183;-84
2023/03/28 03:21:40;;;;;;;8.33;1.93;;;2.00;99.90;;;;;;5012425;28;20192;-85
2023/03/28 03:24:08;;;;;;;9.07;1.97;;;2.00;99.90;;;;;;5012651;28;20214;-84
2023/03/28 03:26:34;;;;;;;7.10;1.57;;;2.00;99.90;;;;;;5013243;28;20246;-84
2023/03/28 03:29:00;;;;;;;4.10;1.73;;;2.10;99.90;;;;;;4994939;28;20266;-84
2023/03/28 03:31:26;;;;;;;12.07;2.20;;;2.00;99.90;;;;;;5013400;28;20183;-85
2023/03/28 03:33:52;;;;;;;13.67;2.77;;;2.00;99.90;;;;;;4995762;28;20186;-84
2023/03/28 03:36:17;;;;;;;6.90;2.03;;;2.00;99.90;;;;;;5012486;28;20194;-84
2023/03/28 03:38:43;;;;;;;9.10;2.00;;;2.00;99.90;;;;;;4995019;28;20179;-84
2023/03/28 03:41:09;;;;;;;7.43;2.37;;;2.10;99.90;;;;;;4994634;28;20195;-84
2023/03/28 03:43:35;;;;;;;6.97;2.13;;;2.10;99.90;;;;;;5011889;28;20187;-83
2023/03/28 03:46:01;;;;;;;10.60;2.23;;;2.00;99.90;;;;;;5008258;28;20222;-85
2023/03/28 03:48:26;;;;;;;4.30;1.83;;;2.00;99.90;;;;;;5002386;28;20695;-84
2023/03/28 03:50:52;;;;;;;9.93;2.37;;;2.00;99.90;;;;;;4994450;28;20203;-83
2023/03/28 03:53:20;;;;;;;9.43;2.07;;;2.00;99.90;;;;;;5011548;28;20198;-83
2023/03/28 03:55:46;;;;;;;10.80;2.43;;;2.00;99.90;;;;;;5012803;28;20183;-87
2023/03/28 03:58:11;;;;;;;6.93;1.80;;;2.00;99.90;;;;;;5012921;28;20198;-86
2023/03/28 04:00:37;;;;;;;6.93;1.73;;;2.10;99.90;;;;;;5011943;28;20210;-85
2023/03/28 04:03:03;;;;;;;9.67;2.53;;;2.00;99.90;;;;;;5012284;28;20514;-82
2023/03/28 04:05:28;;;;;;;7.70;2.70;;;2.00;99.90;;;;;;5012782;28;20313;-82
2023/03/28 04:07:56;;;;;;;12.23;2.17;;;2.10;99.90;;;;;;5014767;28;20282;-81
2023/03/28 04:10:22;;;;;;;8.50;2.40;;;2.10;99.90;;;;;;5014529;28;20195;-84
2023/03/28 04:12:48;;;;;;;11.50;2.60;;;2.00;99.90;;;;;;4997918;28;20189;-85
2023/03/28 04:15:13;;;;;;;13.80;2.90;;;2.00;99.90;;;;;;5016080;28;20186;-82
2023/03/28 04:17:40;;;;;;;13.50;2.80;;;2.00;99.90;;;;;;5017005;28;20183;-86
2023/03/28 04:20:12;;;;;;;8.93;2.50;;;2.00;99.90;;;;;;4998438;28;20202;-85
2023/03/28 04:22:39;;;;;;;16.80;3.30;;;2.00;99.90;;;;;;5015930;28;20208;-84
2023/03/28 04:25:07;;;;;;;9.87;2.77;;;2.00;99.90;;;;;;5015766;28;20558;-85
2023/03/28 04:27:32;;;;;;;8.60;2.60;;;1.90;99.90;;;;;;5014736;28;20692;-83
2023/03/28 04:29:59;;;;;;;10.73;3.10;;;1.90;99.90;;;;;;5015675;28;20277;-85
2023/03/28 04:32:25;;;;;;;14.03;3.53;;;1.90;99.90;;;;;;5009965;28;20214;-84
2023/03/28 04:34:51;;;;;;;8.00;3.00;;;2.00;99.90;;;;;;5010640;28;20590;-83
2023/03/28 04:37:18;;;;;;;10.17;3.23;;;2.00;99.90;;;;;;4997711;28;20199;-84
2023/03/28 04:39:46;;;;;;;13.27;4.07;;;2.00;99.90;;;;;;5009269;28;20190;-84
2023/03/28 04:42:15;;;;;;;9.43;2.77;;;2.00;99.90;;;;;;5015185;28;20677;-84
2023/03/28 04:44:41;;;;;;;11.53;3.37;;;1.90;99.90;;;;;;4997218;28;20227;-86
2023/03/28 04:47:10;;;;;;;8.63;3.17;;;2.00;99.90;;;;;;5011395;28;20543;-83
2023/03/28 04:49:37;;;;;;;11.63;3.30;;;2.00;99.90;;;;;;4997349;28;20193;-84
2023/03/28 04:52:03;;;;;;;9.33;3.00;;;2.00;99.90;;;;;;5014987;28;20574;-84
2023/03/28 04:54:29;;;;;;;15.57;3.40;;;2.00;99.90;;;;;;4995973;28;20595;-82
2023/03/28 04:56:54;;;;;;;10.60;2.60;;;2.00;99.90;;;;;;5015646;28;20209;-85
2023/03/28 04:59:20;;;;;;;15.47;2.97;;;2.00;99.90;;;;;;5015110;28;20205;-83
2023/03/28 05:01:49;;;;;;;11.50;3.10;;;2.00;99.90;;;;;;4997501;28;20626;-84
2023/03/28 05:04:21;;;;;;;11.90;2.90;;;2.10;99.90;;;;;;4991554;28;20215;-85
2023/03/28 05:06:48;;;;;;;7.43;2.90;;;2.10;99.90;;;;;;4998016;28;20225;-84
2023/03/28 05:09:15;;;;;;;10.17;3.03;;;2.10;99.90;;;;;;4998088;28;20207;-85
2023/03/28 05:11:41;;;;;;;10.00;2.97;;;2.10;99.90;;;;;;4996658;28;20191;-84
2023/03/28 05:14:07;;;;;;;13.13;3.10;;;2.10;99.90;;;;;;4997413;28;20606;-85
2023/03/28 05:16:33;;;;;;;15.27;3.20;;;2.10;99.90;;;;;;4997659;28;20664;-84
2023/03/28 05:19:00;;;;;;;10.63;2.80;;;2.00;99.90;;;;;;4996627;28;20228;-83
2023/03/28 05:21:26;;;;;;;13.20;3.50;;;2.00;99.90;;;;;;4998073;28;20198;-85
2023/03/28 05:23:51;;;;;;;8.67;3.07;;;2.00;99.90;;;;;;4997729;28;20222;-84
2023/03/28 05:26:17;;;;;;;8.17;2.87;;;2.00;99.90;;;;;;4997851;28;20186;-84
2023/03/28 05:28:43;;;;;;;11.20;3.27;;;2.00;99.90;;;;;;4996643;28;20241;-85
2023/03/28 05:31:10;;;;;;;9.60;2.90;;;2.00;99.90;;;;;;5009720;28;20210;-83
2023/03/28 05:33:36;;;;;;;13.07;3.50;;;2.10;99.90;;;;;;4989116;28;20660;-84
2023/03/28 05:36:03;;;;;;;12.87;4.03;;;2.10;99.90;;;;;;5012637;28;20262;-84
2023/03/28 05:38:30;;;;;;;9.90;3.93;;;2.10;99.90;;;;;;4989479;28;20630;-84
2023/03/28 05:40:57;;;;;;;11.17;3.13;;;2.10;99.90;;;;;;5012026;28;20226;-83
2023/03/28 05:43:23;;;;;;;7.97;2.87;;;2.10;99.90;;;;;;5013431;28;20249;-82
2023/03/28 05:45:49;;;;;;;9.77;3.07;;;2.10;99.90;;;;;;5015191;28;20230;-83
2023/03/28 05:48:18;;;;;;;8.53;3.03;;;2.10;99.90;;;;;;4997452;28;20193;-83
2023/03/28 05:50:43;;;;;;;10.27;3.00;;;2.10;99.90;;;;;;4996495;28;20195;-83
2023/03/28 05:53:10;;;;;;;13.80;3.47;;;2.10;99.90;;;;;;4995358;28;20198;-83
2023/03/28 05:55:36;;;;;;;11.50;3.13;;;2.20;99.90;;;;;;5015103;28;20173;-84
2023/03/28 05:58:03;;;;;;;12.10;4.03;;;2.20;99.90;;;;;;5014354;28;20198;-83
2023/03/28 06:00:29;;;;;;;6.60;2.97;;;2.10;99.90;;;;;;4996042;28;20191;-84
2023/03/28 06:02:55;;;;;;;8.93;3.07;;;2.20;99.90;;;;;;4995234;28;20191;-82
2023/03/28 06:05:20;;;;;;;10.80;3.13;;;2.30;99.90;;;;;;5013534;28;20299;-84
2023/03/28 06:07:46;;;;;;;10.40;2.87;;;2.30;99.90;;;;;;5014530;28;20743;-82
2023/03/28 06:10:14;;;;;;;8.87;3.00;;;2.30;99.90;;;;;;5008721;28;20179;-82
2023/03/28 06:12:40;;;;;;;6.63;2.50;;;2.30;99.90;;;;;;4977708;28;20221;-82
2023/03/28 06:15:07;;;;;;;11.93;3.13;;;2.20;99.90;;;;;;4995766;28;20597;-83
2023/03/28 06:17:32;;;;;;;13.47;3.10;;;2.20;99.90;;;;;;4996247;28;20618;-83
2023/03/28 06:19:58;;;;;;;9.37;2.70;;;2.30;99.90;;;;;;4997194;28;20297;-83
2023/03/28 06:22:25;;;;;;;9.17;2.50;;;2.40;99.90;;;;;;5013155;28;20186;-82
2023/03/28 06:24:51;;;;;;;7.87;3.00;;;2.40;99.90;;;;;;5012288;28;20261;-83
2023/03/28 06:27:17;;;;;;;9.43;2.97;;;2.40;99.90;;;;;;5012959;28;20210;-82
2023/03/28 06:29:43;;;;;;;8.33;2.53;;;2.50;99.90;;;;;;5012208;28;20614;-84
2023/03/28 06:32:09;;;;;;;12.87;3.23;;;2.60;99.90;;;;;;5014435;28;20228;-83
2023/03/28 06:34:34;;;;;;;14.07;2.80;;;2.60;99.90;;;;;;4989145;28;20190;-82
2023/03/28 06:37:01;;;;;;;11.60;2.60;;;2.70;99.90;;;;;;5012578;28;20180;-82
2023/03/28 06:39:27;;;;;;;6.50;1.87;;;2.70;99.90;;;;;;5011590;28;20179;-82
2023/03/28 06:41:53;;;;;;;7.70;2.10;;;2.70;99.90;;;;;;5009019;28;20183;-83
2023/03/28 06:44:19;;;;;;;11.37;2.50;;;2.70;99.90;;;;;;4994652;28;20225;-83
2023/03/28 06:46:44;;;;;;;7.60;2.03;;;2.80;99.90;;;;;;5011215;28;20195;-83
2023/03/28 06:49:10;;;;;;;11.63;2.53;;;2.90;99.90;;;;;;5011834;28;20660;-83
2023/03/28 06:51:36;;;;;;;10.17;2.17;;;2.90;99.90;;;;;;5010386;28;20183;-83
2023/03/28 06:54:01;;;;;;;11.80;2.13;;;3.00;99.90;;;;;;5012969;28;20567;-83
2023/03/28 06:56:27;;;;;;;9.50;2.27;;;3.00;99.90;;;;;;5013305;28;20274;-83
2023/03/28 06:58:53;;;;;;;7.70;1.93;;;3.00;99.90;;;;;;4995627;28;20190;-81
2023/03/28 07:01:19;;;;;;;12.77;2.43;;;3.10;99.90;;;;;;5013106;28;20238;-82
2023/03/28 07:03:45;;;;;;;7.60;1.77;;;3.10;99.90;;;;;;4994610;28;20198;-83
2023/03/28 07:06:11;;;;;;;8.97;1.90;;;3.10;99.90;;;;;;5012977;28;20636;-82
2023/03/28 07:08:36;;;;;;;10.00;2.07;;;3.20;99.90;;;;;;5011767;28;20227;-83
2023/03/28 07:11:02;;;;;;;7.83;2.20;;;3.10;99.90;;;;;;5012698;28;20214;-84
2023/03/28 07:13:28;;;;;;;10.40;2.47;;;3.10;99.90;;;;;;5013002;28;20638;-83
2023/03/28 07:16:04;;;;;;;7.27;2.00;;;3.20;99.90;;;;;;5012379;28;20197;-82
2023/03/28 07:18:30;;;;;;;4.73;1.60;;;3.20;99.90;;;;;;4996038;28;20186;-81
2023/03/28 07:20:57;;;;;;;9.73;1.73;;;3.20;99.90;;;;;;5011640;28;20635;-82
2023/03/28 07:23:23;;;;;;;10.37;2.03;;;3.20;99.90;;;;;;5012613;28;20175;-82
2023/03/28 07:25:48;;;;;;;7.43;2.03;;;3.30;99.90;;;;;;5011677;28;20560;-83
2023/03/28 07:28:14;;;;;;;10.83;1.80;;;3.40;99.90;;;;;;4996199;28;20183;-84
2023/03/28 07:30:40;;;;;;;9.27;2.50;;;3.40;99.90;;;;;;5012176;28;20581;-83
2023/03/28 07:33:06;;;;;;;10.23;2.03;;;3.50;99.90;;;;;;5013691;28;20179;-85
2023/03/28 07:35:32;;;;;;;8.63;1.90;;;3.50;99.90;;;;;;4995463;28;20191;-87
2023/03/28 07:37:58;;;;;;;6.67;1.60;;;3.60;99.90;;;;;;5014295;28;20168;-84
2023/03/28 07:40:23;;;;;;;10.73;2.10;;;3.70;99.90;;;;;;5013421;28;20282;-86
2023/03/28 07:42:49;;;;;;;11.27;2.40;;;3.70;99.90;;;;;;4999870;28;20187;-86
2023/03/28 07:45:16;;;;;;;6.40;2.23;;;3.70;99.90;;;;;;4998442;28;20288;-86
2023/03/28 07:47:41;;;;;;;9.43;2.13;;;3.70;99.90;;;;;;5017455;28;20649;-86
2023/03/28 07:50:08;;;;;;;7.57;1.87;;;3.80;99.90;;;;;;5016378;28;20183;-85
2023/03/28 07:52:34;;;;;;;7.77;2.17;;;3.90;99.90;;;;;;5000050;28;20201;-85
2023/03/28 07:54:59;;;;;;;4.43;1.60;;;4.00;99.90;;;;;;5016608;28;20196;-84
2023/03/28 07:57:25;;;;;;;7.97;2.17;;;4.00;99.90;;;;;;5016287;28;20175;-86
2023/03/28 07:59:51;;;;;;;11.43;2.17;;;4.00;99.90;;;;;;4999195;28;20195;-84
2023/03/28 08:02:17;;;;;;;12.63;2.03;;;4.10;99.90;;;;;;4998870;28;21982;-84
2023/03/28 08:04:42;;;;;;;7.23;1.63;;;4.20;99.90;;;;;;4997336;28;20638;-84
2023/03/28 08:07:09;;;;;;;16.40;2.03;;;4.40;99.90;;;;;;5014387;28;20729;-84
2023/03/28 08:09:35;;;;;;;4.70;1.40;;;4.40;99.90;;;;;;5015022;28;20191;-83
2023/03/28 08:12:01;;;;;;;8.23;1.90;;;4.50;99.90;;;;;;5016998;28;20266;-85
2023/03/28 08:14:26;;;;;;;12.53;1.90;;;4.60;99.90;;;;;;5015647;28;20230;-85
2023/03/28 08:16:52;;;;;;;13.47;1.80;;;4.70;99.90;;;;;;4998529;28;20185;-84
2023/03/28 08:19:18;;;;;;;8.20;2.20;;;4.80;99.90;;;;;;5016404;28;20183;-84
2023/03/28 08:21:44;;;;;;;8.03;1.53;;;4.80;99.90;;;;;;5016033;28;20562;-84
2023/03/28 08:24:10;;;;;;;11.50;2.20;;;4.90;99.90;;;;;;5014636;28;20298;-83
2023/03/28 08:26:37;;;;;;;7.67;1.90;;;4.80;99.90;;;;;;5016093;28;20490;-85
2023/03/28 08:29:05;;;;;;;12.73;2.20;;;4.70;99.90;;;;;;4999851;28;20191;-84
2023/03/28 08:31:30;;;;;;;6.17;1.87;;;4.80;99.90;;;;;;5015691;28;20644;-84
2023/03/28 08:33:57;;;;;;;10.40;1.90;;;5.00;99.90;;;;;;5016172;28;20261;-84
2023/03/28 08:36:26;;;;;;;11.00;1.90;;;5.10;99.90;;;;;;5014665;28;20626;-86
2023/03/28 08:38:53;;;;;;;12.80;1.50;;;5.20;99.90;;;;;;4998548;28;20210;-88
2023/03/28 08:41:53;;;;;;;7.30;1.70;;;5.40;99.90;;;;;;4998237;28;20192;-84
2023/03/28 08:44:39;;;;;;;9.30;2.17;;;5.40;99.90;;;;;;4997747;28;20532;-84
2023/03/28 08:47:14;;;;;;;6.77;2.13;;;5.50;99.90;;;;;;5015784;28;20267;-87
2023/03/28 08:49:55;;;;;;;9.37;1.70;;;5.40;99.90;;;;;;4995487;28;20179;-86
2023/03/28 08:52:21;;;;;;;14.10;2.30;;;5.30;99.90;;;;;;5016220;28;20194;-84
2023/03/28 08:55:05;;;;;;;5.43;1.40;;;5.50;99.90;;;;;;4995634;28;20191;-85
2023/03/28 08:57:34;;;;;;;10.17;1.67;;;5.70;99.90;;;;;;4994303;28;20520;-86
2023/03/28 09:00:15;;;;;;;7.23;2.50;;;5.60;99.90;;;;;;5015873;28;20179;-86
2023/03/28 09:02:42;;;;;;;11.00;1.87;;;5.30;99.90;;;;;;4998505;28;20203;-85
2023/03/28 09:05:16;;;;;;;7.53;1.83;;;5.40;99.90;;;;;;5014245;28;20225;-86
2023/03/28 09:08:05;;;;;;;5.47;1.90;;;5.60;99.90;;;;;;5000367;28;20223;-85
2023/03/28 09:10:50;;;;;;;5.77;1.40;;;5.70;99.90;;;;;;5007116;28;20193;-86
2023/03/28 09:13:36;;;;;;;4.27;1.33;;;5.80;99.90;;;;;;5014523;28;20243;-85
2023/03/28 09:16:20;;;;;;;6.33;1.10;;;5.60;99.90;;;;;;4992095;28;20607;-83
2023/03/28 09:19:04;;;;;;;5.93;1.50;;;5.80;99.90;;;;;;5010019;28;20249;-83
2023/03/28 09:21:44;;;;;;;5.13;1.47;;;6.00;99.90;;;;;;5013294;28;20178;-84
2023/03/28 09:24:40;;;;;;;11.17;1.80;;;6.00;99.90;;;;;;5014192;28;20202;-84
2023/03/28 09:27:17;;;;;;;4.50;1.30;;;6.10;99.90;;;;;;5011906;28;20221;-87
2023/03/28 09:29:45;;;;;;;4.40;1.20;;;6.10;99.90;;;;;;5014267;28;20194;-84
2023/03/28 09:32:20;;;;;;;5.97;1.50;;;6.20;99.90;;;;;;5014985;28;20690;-84
2023/03/28 09:34:49;;;;;;;4.77;1.17;;;6.30;99.90;;;;;;4996229;28;20183;-85
2023/03/28 09:37:34;;;;;;;6.57;1.03;;;6.20;99.90;;;;;;4998132;28;20501;-84
2023/03/28 09:40:22;;;;;;;6.37;1.30;;;6.20;99.90;;;;;;5015423;28;20210;-83
2023/03/28 09:43:03;;;;;;;4.93;1.10;;;6.30;99.90;;;;;;5000361;28;20203;-84
2023/03/28 09:45:43;;;;;;;9.63;1.80;;;6.50;99.90;;;;;;5003345;28;20246;-85
2023/03/28 09:48:21;;;;;;;8.73;1.37;;;6.50;99.90;;;;;;5014170;28;20198;-85
2023/03/28 09:50:47;;;;;;;5.13;1.40;;;6.40;99.90;;;;;;5014267;28;20254;-83
2023/03/28 09:53:30;;;;;;;7.47;1.20;;;6.30;99.90;;;;;;4997038;28;20322;-82
2023/03/28 09:56:04;;;;;;;6.30;1.20;;;6.50;99.90;;;;;;5004675;28;20282;-86
2023/03/28 09:58:52;;;;;;;4.77;1.27;;;6.90;99.90;;;;;;4996796;28;20218;-83
2023/03/28 10:01:26;;;;;;;7.70;1.80;;;7.20;99.90;;;;;;5006772;28;20187;-82
2023/03/28 10:03:53;;;;;;;4.63;1.23;;;7.40;99.90;;;;;;5000308;28;20194;-83
2023/03/28 10:06:27;;;;;;;2.93;0.87;;;7.40;99.90;;;;;;5013421;28;20183;-83
2023/03/28 10:09:22;;;;;;;8.20;1.30;;;7.10;99.90;;;;;;4976564;28;20235;-83
2023/03/28 10:11:48;;;;;;;5.97;1.30;;;6.90;99.90;;;;;;4970598;28;20200;-86
2023/03/28 10:14:30;;;;;;;6.00;1.57;;;6.60;99.90;;;;;;4974532;28;20192;-86
2023/03/28 10:17:01;;;;;;;7.60;1.40;;;6.40;99.90;;;;;;4972807;28;20254;-86
2023/03/28 10:19:32;;;;;;;5.80;1.27;;;6.30;99.90;;;;;;4974939;28;20717;-84
2023/03/28 10:22:09;;;;;;;6.33;1.20;;;6.20;99.90;;;;;;4974498;28;20199;-86
2023/03/28 10:24:36;;;;;;;7.03;1.40;;;6.10;99.90;;;;;;4974011;28;20223;-86
2023/03/28 10:27:13;;;;;;;4.47;1.40;;;6.00;99.90;;;;;;4965742;28;20291;-84
2023/03/28 10:29:39;;;;;;;12.77;1.90;;;6.00;99.90;;;;;;4974669;28;20188;-85
2023/03/28 10:32:05;;;;;;;7.43;1.30;;;6.00;99.90;;;;;;4975718;28;20176;-84
2023/03/28 10:34:33;;;;;;;7.37;1.30;;;6.10;99.90;;;;;;4973666;28;20187;-85
2023/03/28 10:36:59;;;;;;;4.77;1.30;;;6.20;99.90;;;;;;4973015;28;20188;-82
2023/03/28 10:39:28;;;;;;;11.43;1.70;;;6.30;99.90;;;;;;4974392;28;20171;-82
2023/03/28 10:41:59;;;;;;;6.30;1.33;;;6.40;99.90;;;;;;4975349;28;20188;-85
2023/03/28 10:44:36;;;;;;;4.50;1.33;;;6.50;99.90;;;;;;4971758;28;20204;-84
2023/03/28 10:47:07;;;;;;;6.00;1.53;;;6.60;99.90;;;;;;4970743;28;20725;-84
2023/03/28 10:49:45;;;;;;;6.07;1.90;;;6.70;99.90;;;;;;4975197;28;20626;-83
2023/03/28 10:52:46;;;;;;;9.50;1.57;;;6.60;99.90;;;;;;4973067;28;20228;-85
2023/03/28 10:55:12;;;;;;;7.00;1.57;;;6.50;99.90;;;;;;4969062;28;20196;-84
2023/03/28 10:58:18;;;;;;;8.80;1.27;;;6.30;99.90;;;;;;4975162;28;20180;-84
2023/03/28 11:00:56;;;;;;;6.57;1.63;;;6.30;99.90;;;;;;4974782;28;20184;-83
2023/03/28 11:03:42;;;;;;;4.97;1.30;;;6.30;99.90;;;;;;4974860;28;20168;-86
2023/03/28 11:06:44;;;;;;;10.30;1.40;;;6.30;99.90;;;;;;4974236;28;20303;-83
2023/03/28 11:09:35;;;;;;;10.47;1.73;;;6.50;99.90;;;;;;4993608;28;20281;-83
2023/03/28 11:12:16;;;;;;;6.77;1.47;;;6.70;99.90;;;;;;5013732;28;20175;-83
2023/03/28 11:14:55;;;;;;;5.53;1.43;;;7.00;99.90;;;;;;4994929;28;20630;-84
2023/03/28 11:17:41;;;;;;;9.13;1.93;;;7.10;99.90;;;;;;4989052;28;22295;-83
2023/03/28 11:20:24;;;;;;;7.53;1.30;;;7.40;99.90;;;;;;5002171;28;20182;-84
2023/03/28 11:23:14;;;;;;;4.80;1.53;;;7.70;99.90;;;;;;5013939;28;20289;-85
2023/03/28 11:25:54;;;;;;;6.20;1.17;;;7.90;99.90;;;;;;5003233;28;20215;-84
2023/03/28 11:28:45;;;;;;;3.60;1.10;;;7.90;99.90;;;;;;5005245;28;20179;-84
2023/03/28 11:31:16;;;;;;;3.53;1.20;;;7.80;99.90;;;;;;4995952;28;20187;-84
2023/03/28 11:33:52;;;;;;;8.97;1.30;;;8.00;99.90;;;;;;5012391;28;20194;-85
2023/03/28 11:36:28;;;;;;;4.27;1.13;;;8.40;99.90;;;;;;4995495;28;20187;-85
2023/03/28 11:39:05;;;;;;;4.07;1.10;;;8.50;99.90;;;;;;4995515;28;20210;-83
2023/03/28 11:41:34;;;;;;;7.27;1.13;;;8.40;99.90;;;;;;5013705;28;20602;-87
2023/03/28 11:44:14;;;;;;;3.60;1.23;;;8.60;99.90;;;;;;5013000;28;20190;-83
2023/03/28 11:46:44;;;;;;;7.97;1.30;;;8.70;99.90;;;;;;5013680;28;20172;-84
2023/03/28 11:49:25;;;;;;;6.80;1.53;;;8.60;99.90;;;;;;4995568;28;20187;-84
2023/03/28 11:52:01;;;;;;;9.40;1.83;;;8.70;99.90;;;;;;5013301;28;20187;-86
2023/03/28 11:54:43;;;;;;;2.97;1.10;;;8.40;99.90;;;;;;4996245;28;20237;-85
2023/03/28 11:57:32;;;;;;;7.87;1.70;;;8.20;99.90;;;;;;4995374;28;20656;-85
2023/03/28 12:00:14;;;;;;;6.87;1.50;;;7.90;99.90;;;;;;5011288;28;20187;-85
2023/03/28 12:02:50;;;;;;;5.17;1.00;;;7.80;99.90;;;;;;5011639;28;20187;-84
2023/03/28 12:05:44;;;;;;;6.30;1.57;;;7.70;99.90;;;;;;5011853;28;20246;-84
2023/03/28 12:08:25;;;;;;;11.07;1.40;;;7.60;99.90;;;;;;4995351;28;20231;-85
2023/03/28 12:10:56;;;;;;;8.43;1.73;;;7.60;99.90;;;;;;5013006;28;20183;-86
2023/03/28 12:13:37;;;;;;;7.73;1.77;;;7.50;99.90;;;;;;4995021;28;20187;-85
2023/03/28 12:16:12;;;;;;;6.03;1.47;;;7.40;99.90;;;;;;4995227;28;20195;-85
2023/03/28 12:18:37;;;;;;;6.13;1.40;;;7.50;99.90;;;;;;4976499;28;20274;-83
2023/03/28 12:21:06;;;;;;;5.10;1.43;;;7.50;99.90;;;;;;5007075;28;20278;-84
2023/03/28 12:23:39;;;;;;;8.17;1.00;;;7.60;99.90;;;;;;4994497;28;20187;-84
2023/03/28 12:26:35;;;;;;;3.53;1.17;;;7.50;99.90;;;;;;4993212;28;20296;-85
2023/03/28 12:29:16;;;;;;;5.27;1.27;;;7.50;99.90;;;;;;4996143;28;20191;-86
2023/03/28 12:31:56;;;;;;;5.70;1.30;;;7.40;99.90;;;;;;5012921;28;20278;-86
2023/03/28 12:34:37;;;;;;;9.13;1.63;;;7.40;99.90;;;;;;5016035;28;20217;-84
2023/03/28 12:37:27;;;;;;;10.43;1.70;;;7.30;99.90;;;;;;5016641;28;20183;-85
2023/03/28 12:39:57;;;;;;;12.93;2.17;;;7.20;99.90;;;;;;5015258;28;20711;-85
2023/03/28 12:42:26;;;;;;;6.70;2.40;;;7.20;99.90;;;;;;5015490;28;20198;-85
2023/03/28 12:45:05;;;;;;;6.47;1.60;;;7.10;99.90;;;;;;5015092;28;20214;-86
2023/03/28 12:47:41;;;;;;;7.10;1.50;;;6.90;99.90;;;;;;5016087;28;20179;-88
2023/03/28 12:50:13;;;;;;;5.30;1.30;;;7.00;99.90;;;;;;4997482;28;20573;-85
2023/03/28 12:52:42;;;;;;;7.23;1.37;;;7.00;99.90;;;;;;5015931;28;20178;-83
2023/03/28 12:55:23;;;;;;;7.30;1.73;;;6.90;99.90;;;;;;5015497;28;20202;-85
2023/03/28 12:57:53;;;;;;;8.13;1.67;;;6.80;99.90;;;;;;4999565;28;20218;-85
2023/03/28 13:00:30;;;;;;;5.97;1.30;;;6.70;99.90;;;;;;5002708;28;20183;-85
2023/03/28 13:03:13;;;;;;;9.63;2.00;;;6.60;99.90;;;;;;4998118;28;20592;-85
2023/03/28 13:05:51;;;;;;;7.73;1.60;;;6.60;99.90;;;;;;4997775;28;20273;-86
2023/03/28 13:08:35;;;;;;;8.50;1.57;;;6.60;99.90;;;;;;5002561;28;20741;-86
2023/03/28 13:11:13;;;;;;;5.67;1.60;;;6.60;99.90;;;;;;5011577;28;20187;-86
2023/03/28 13:13:57;;;;;;;10.93;1.63;;;6.60;99.90;;;;;;4998528;28;20273;-86
2023/03/28 13:16:54;;;;;;;5.07;1.90;;;6.70;99.90;;;;;;5014186;28;20237;-86
2023/03/28 13:19:50;;;;;;;9.80;2.10;;;6.90;99.90;;;;;;5014728;28;20171;-85
2023/03/28 13:22:31;;;;;;;9.50;1.50;;;7.10;99.90;;;;;;4997910;28;20202;-86